F/V Roger Christian3 — FUFL — position and weather

sailwx.info

Track history (hours):
 
Tides and Currents Weather Stations Pressure Air Temp Water Temp Dewpoint Dewpoint Depression Visibility Wind Speed Wind Dir Waves Ship Positions

F/V Roger Christian3

Last reported at 2014-Sep-20 19:21 UTC. Time now 2014-Sep-21 22:15 UTC.
Position N 43°24' E 003°42'.

Length 24 m.

Type: Fishing. MMSI: 228173800.

Date/timePositionNaut miles runAvg speedWind from/ knotsBaromVisibWave heightAir tempDewpointWater temp
2014-Sep-20 19:21N 43°24' E 003°42'0 0.0
2014-Sep-20 14:09N 43°24' E 003°42'0 0.0
2014-Sep-20 13:26N 43°24' E 003°42'0 0.0
2014-Sep-20 10:21N 43°24' E 003°42'0 0.0
2014-Sep-20 08:17N 43°24' E 003°42'0 0.0
2014-Sep-19 21:33N 43°24' E 003°42'0 0.0
2014-Sep-19 16:05N 43°24' E 003°42'0 0.3
2014-Sep-19 15:14N 43°24' E 003°42'9 8.0
2014-Sep-19 14:07N 43°15' E 003°46'4 4.4
2014-Sep-19 13:13N 43°17' E 003°51'3 3.6
2014-Sep-19 12:28N 43°18' E 003°54'4 4.5
2014-Sep-19 11:32N 43°18' E 003°60'3 3.1
2014-Sep-19 10:34N 43°16' E 004°03'4 4.3
2014-Sep-19 09:31N 43°15' E 004°09'5 4.3
2014-Sep-19 08:17N 43°12' E 004°15'5 4.8
2014-Sep-19 07:13N 43°07' E 004°18'1 1.4
2014-Sep-19 06:25N 43°07' E 004°17'6 4.2
2014-Sep-19 05:06N 43°11' E 004°11'25 2.1
2014-Sep-18 17:09N 43°24' E 003°42'6 2.1
2014-Sep-18 14:18N 43°20' E 003°47'4 4.3
2014-Sep-18 13:26N 43°18' E 003°52'9 4.2
2014-Sep-18 11:22N 43°17' E 004°04'3 3.4
2014-Sep-18 10:28N 43°15' E 004°07'9 4.5
2014-Sep-18 08:32N 43°08' E 004°14'5 3.2
2014-Sep-18 07:07N 43°05' E 004°19'2 2.6
2014-Sep-18 06:27N 43°05' E 004°16'31 2.1
2014-Sep-17 15:21N 43°24' E 003°42'9 6.8
2014-Sep-17 14:04N 43°18' E 003°50'2 3.2
2014-Sep-17 13:28N 43°16' E 003°52'5 4.4
2014-Sep-17 12:27N 43°13' E 003°56'5 4.5
2014-Sep-17 11:13N 43°09' E 004°01'4 4.7
2014-Sep-17 10:17N 43°07' E 004°07'2 3.2
2014-Sep-17 09:33N 43°06' E 004°10'4 4.4
2014-Sep-17 08:33N 43°06' E 004°16'30 1.8
2014-Sep-16 15:19N 43°24' E 003°42'6 5.5
2014-Sep-16 14:10N 43°18' E 003°45'13 6.5
2014-Sep-16 12:13N 43°06' E 003°51'5 4.6
2014-Sep-16 11:10N 43°02' E 003°54'7 3.8
2014-Sep-16 09:16N 42°56' E 003°60'4 4.4
2014-Sep-16 08:23N 42°57' E 004°05'4 4.5
2014-Sep-16 07:25N 42°57' E 004°11'6 2.0
2014-Sep-16 04:26N 43°02' E 004°08'16 1.1
2014-Sep-15 13:16N 43°09' E 003°48'8 4.5
2014-Sep-15 11:32N 43°02' E 003°52'13 4.2
2014-Sep-15 08:28N 42°56' E 004°08'4 3.6
2014-Sep-15 07:27N 42°56' E 004°13'5 2.3
2014-Sep-15 05:22N 43°01' E 004°14'8 3.6
2014-Sep-15 03:05N 43°05' E 004°05'25 3.7
2014-Sep-14 20:18N 43°24' E 003°42'0 0.0
2014-Sep-14 19:33N 43°24' E 003°42'0 0.0
2014-Sep-14 18:32N 43°24' E 003°42'0 0.0
2014-Sep-14 17:25N 43°24' E 003°42'0 0.0
2014-Sep-14 16:27N 43°24' E 003°42'0 0.0
2014-Sep-14 15:27N 43°24' E 003°42'0 0.0
2014-Sep-14 14:09N 43°24' E 003°42'0 0.0
2014-Sep-14 13:23N 43°24' E 003°42'0 0.0
2014-Sep-14 12:13N 43°24' E 003°42'0 0.0
2014-Sep-14 11:17N 43°24' E 003°42'0 0.0
2014-Sep-14 09:32N 43°24' E 003°42'0 0.0
2014-Sep-14 08:29N 43°24' E 003°42'0 0.0
2014-Sep-14 07:19N 43°24' E 003°42'0 0.0
2014-Sep-14 01:24N 43°24' E 003°42'0 0.0
2014-Sep-13 21:33N 43°24' E 003°42'0 0.0
2014-Sep-13 20:33N 43°24' E 003°42'0 0.0
2014-Sep-13 19:25N 43°24' E 003°42'0 0.0
2014-Sep-13 18:33N 43°24' E 003°42'0 0.0
2014-Sep-13 17:32N 43°24' E 003°42'0 0.0
2014-Sep-13 16:18N 43°24' E 003°42'0 0.0
2014-Sep-13 15:25N 43°24' E 003°42'0 0.0
2014-Sep-13 14:08N 43°24' E 003°42'0 0.0
2014-Sep-13 13:11N 43°24' E 003°42'0 0.0
2014-Sep-13 12:28N 43°24' E 003°42'0 0.0
2014-Sep-13 11:31N 43°24' E 003°42'0 0.0
2014-Sep-12 23:27N 43°24' E 003°42'0 0.0
2014-Sep-12 22:16N 43°24' E 003°42'0 0.0
2014-Sep-12 21:11N 43°24' E 003°42'0 0.0
2014-Sep-12 19:19N 43°24' E 003°42'0 0.0
2014-Sep-12 18:32N 43°24' E 003°42'0 0.1
2014-Sep-12 17:32N 43°24' E 003°42'0 0.4
2014-Sep-12 16:31N 43°24' E 003°42'0 0.0
2014-Sep-12 15:33N 43°24' E 003°42'9 4.2
2014-Sep-12 13:28N 43°15' E 003°43'4 3.7
2014-Sep-12 12:27N 43°12' E 003°42'4 4.4
2014-Sep-12 11:32N 43°08' E 003°42'5 4.8
2014-Sep-12 10:29N 43°03' E 003°43'3 2.6
2014-Sep-12 09:21N 43°02' E 003°40'4 4.4
2014-Sep-12 08:23N 42°60' E 003°34'4 4.5
2014-Sep-12 07:27N 42°57' E 003°31'2 2.2
2014-Sep-12 06:19N 42°54' E 003°30'31 2.1
2014-Sep-11 15:27N 43°24' E 003°42'5 5.9
2014-Sep-11 14:33N 43°21' E 003°48'1311.4
2014-Sep-11 13:22N 43°13' E 004°03'911.6
2014-Sep-11 12:33N 43°08' E 004°14'1110.2
2014-Sep-11 11:26N 43°02' E 004°27'2 2.2
2014-Sep-11 10:32N 43°01' E 004°29'4 0.8
2014-Sep-11 06:11N 43°01' E 004°34'3 4.3
2014-Sep-11 05:32N 43°02' E 004°31'5 4.6
2014-Sep-11 04:28N 43°05' E 004°25'7 6.8
2014-Sep-11 03:28N 43°08' E 004°17'1111.2
2014-Sep-11 02:29N 43°14' E 004°04'1211.5
2014-Sep-11 01:27N 43°20' E 003°50'7 1.4
2014-Sep-10 20:14N 43°24' E 003°42'0 0.0
2014-Sep-10 19:22N 43°24' E 003°42'  
Track history (hours):
 
Tides and Currents Weather Stations Pressure Air Temp Water Temp Dewpoint Dewpoint Depression Visibility Wind Speed Wind Dir Waves Ship Positions

F/V Roger Christian3

Last reported at 2014-Sep-20 19:21 UTC. Time now 2014-Sep-21 22:15 UTC.
Position N 43°24' E 003°42'.

Length 24 m.

Type: Fishing. MMSI: 228173800.

Date/timePositionNaut miles runAvg speedWind from/ knotsBaromVisibWave heightAir tempDewpointWater temp
2014-Sep-20 19:21N 43°24' E 003°42'0 0.0
2014-Sep-20 14:09N 43°24' E 003°42'0 0.0
2014-Sep-20 13:26N 43°24' E 003°42'0 0.0
2014-Sep-20 10:21N 43°24' E 003°42'0 0.0
2014-Sep-20 08:17N 43°24' E 003°42'0 0.0
2014-Sep-19 21:33N 43°24' E 003°42'0 0.0
2014-Sep-19 16:05N 43°24' E 003°42'0 0.3
2014-Sep-19 15:14N 43°24' E 003°42'9 8.0
2014-Sep-19 14:07N 43°15' E 003°46'4 4.4
2014-Sep-19 13:13N 43°17' E 003°51'3 3.6
2014-Sep-19 12:28N 43°18' E 003°54'4 4.5
2014-Sep-19 11:32N 43°18' E 003°60'3 3.1
2014-Sep-19 10:34N 43°16' E 004°03'4 4.3
2014-Sep-19 09:31N 43°15' E 004°09'5 4.3
2014-Sep-19 08:17N 43°12' E 004°15'5 4.8
2014-Sep-19 07:13N 43°07' E 004°18'1 1.4
2014-Sep-19 06:25N 43°07' E 004°17'6 4.2
2014-Sep-19 05:06N 43°11' E 004°11'25 2.1
2014-Sep-18 17:09N 43°24' E 003°42'6 2.1
2014-Sep-18 14:18N 43°20' E 003°47'4 4.3
2014-Sep-18 13:26N 43°18' E 003°52'9 4.2
2014-Sep-18 11:22N 43°17' E 004°04'3 3.4
2014-Sep-18 10:28N 43°15' E 004°07'9 4.5
2014-Sep-18 08:32N 43°08' E 004°14'5 3.2
2014-Sep-18 07:07N 43°05' E 004°19'2 2.6
2014-Sep-18 06:27N 43°05' E 004°16'31 2.1
2014-Sep-17 15:21N 43°24' E 003°42'9 6.8
2014-Sep-17 14:04N 43°18' E 003°50'2 3.2
2014-Sep-17 13:28N 43°16' E 003°52'5 4.4
2014-Sep-17 12:27N 43°13' E 003°56'5 4.5
2014-Sep-17 11:13N 43°09' E 004°01'4 4.7
2014-Sep-17 10:17N 43°07' E 004°07'2 3.2
2014-Sep-17 09:33N 43°06' E 004°10'4 4.4
2014-Sep-17 08:33N 43°06' E 004°16'30 1.8
2014-Sep-16 15:19N 43°24' E 003°42'6 5.5
2014-Sep-16 14:10N 43°18' E 003°45'13 6.5
2014-Sep-16 12:13N 43°06' E 003°51'5 4.6
2014-Sep-16 11:10N 43°02' E 003°54'7 3.8
2014-Sep-16 09:16N 42°56' E 003°60'4 4.4
2014-Sep-16 08:23N 42°57' E 004°05'4 4.5
2014-Sep-16 07:25N 42°57' E 004°11'6 2.0
2014-Sep-16 04:26N 43°02' E 004°08'16 1.1
2014-Sep-15 13:16N 43°09' E 003°48'8 4.5
2014-Sep-15 11:32N 43°02' E 003°52'13 4.2
2014-Sep-15 08:28N 42°56' E 004°08'4 3.6
2014-Sep-15 07:27N 42°56' E 004°13'5 2.3
2014-Sep-15 05:22N 43°01' E 004°14'8 3.6
2014-Sep-15 03:05N 43°05' E 004°05'25 3.7
2014-Sep-14 20:18N 43°24' E 003°42'0 0.0
2014-Sep-14 19:33N 43°24' E 003°42'0 0.0
2014-Sep-14 18:32N 43°24' E 003°42'0 0.0
2014-Sep-14 17:25N 43°24' E 003°42'0 0.0
2014-Sep-14 16:27N 43°24' E 003°42'0 0.0
2014-Sep-14 15:27N 43°24' E 003°42'0 0.0
2014-Sep-14 14:09N 43°24' E 003°42'0 0.0
2014-Sep-14 13:23N 43°24' E 003°42'0 0.0
2014-Sep-14 12:13N 43°24' E 003°42'0 0.0
2014-Sep-14 11:17N 43°24' E 003°42'0 0.0
2014-Sep-14 09:32N 43°24' E 003°42'0 0.0
2014-Sep-14 08:29N 43°24' E 003°42'0 0.0
2014-Sep-14 07:19N 43°24' E 003°42'0 0.0
2014-Sep-14 01:24N 43°24' E 003°42'0 0.0
2014-Sep-13 21:33N 43°24' E 003°42'0 0.0
2014-Sep-13 20:33N 43°24' E 003°42'0 0.0
2014-Sep-13 19:25N 43°24' E 003°42'0 0.0
2014-Sep-13 18:33N 43°24' E 003°42'0 0.0
2014-Sep-13 17:32N 43°24' E 003°42'0 0.0
2014-Sep-13 16:18N 43°24' E 003°42'0 0.0
2014-Sep-13 15:25N 43°24' E 003°42'0 0.0
2014-Sep-13 14:08N 43°24' E 003°42'0 0.0
2014-Sep-13 13:11N 43°24' E 003°42'0 0.0
2014-Sep-13 12:28N 43°24' E 003°42'0 0.0
2014-Sep-13 11:31N 43°24' E 003°42'0 0.0
2014-Sep-12 23:27N 43°24' E 003°42'0 0.0
2014-Sep-12 22:16N 43°24' E 003°42'0 0.0
2014-Sep-12 21:11N 43°24' E 003°42'0 0.0
2014-Sep-12 19:19N 43°24' E 003°42'0 0.0
2014-Sep-12 18:32N 43°24' E 003°42'0 0.1
2014-Sep-12 17:32N 43°24' E 003°42'0 0.4
2014-Sep-12 16:31N 43°24' E 003°42'0 0.0
2014-Sep-12 15:33N 43°24' E 003°42'9 4.2
2014-Sep-12 13:28N 43°15' E 003°43'4 3.7
2014-Sep-12 12:27N 43°12' E 003°42'4 4.4
2014-Sep-12 11:32N 43°08' E 003°42'5 4.8
2014-Sep-12 10:29N 43°03' E 003°43'3 2.6
2014-Sep-12 09:21N 43°02' E 003°40'4 4.4
2014-Sep-12 08:23N 42°60' E 003°34'4 4.5
2014-Sep-12 07:27N 42°57' E 003°31'2 2.2
2014-Sep-12 06:19N 42°54' E 003°30'31 2.1
2014-Sep-11 15:27N 43°24' E 003°42'5 5.9
2014-Sep-11 14:33N 43°21' E 003°48'1311.4
2014-Sep-11 13:22N 43°13' E 004°03'911.6
2014-Sep-11 12:33N 43°08' E 004°14'1110.2
2014-Sep-11 11:26N 43°02' E 004°27'2 2.2
2014-Sep-11 10:32N 43°01' E 004°29'4 0.8
2014-Sep-11 06:11N 43°01' E 004°34'3 4.3
2014-Sep-11 05:32N 43°02' E 004°31'5 4.6
2014-Sep-11 04:28N 43°05' E 004°25'7 6.8
2014-Sep-11 03:28N 43°08' E 004°17'1111.2
2014-Sep-11 02:29N 43°14' E 004°04'1211.5
2014-Sep-11 01:27N 43°20' E 003°50'7 1.4
2014-Sep-10 20:14N 43°24' E 003°42'0 0.0
2014-Sep-10 19:22N 43°24' E 003°42'  

Dump ship's entire track history